Terminal Aerodrome Forecast
Issued by NWS Cleveland, OH

Home | Current Version | Previous Version | Text Only | Print | Product List | Glossary Off
Versions: 1 2 3 4 5 6 7 8 9 10 11 12 13 14 15 16 17 18

000
FTUS41 KCLE 072300
TAFCAK
TAF
KCAK 072337Z 0800/0824 22012G20KT P6SM SCT040
     FM080100 22008KT P6SM BKN045
     FM080800 22006KT 4SM BR SCT020 BKN150
     FM081300 20010KT 6SM BR VCSH BKN020 BKN035 OVC080
     FM081600 23010G18KT 5SM -SHRA VCTS BKN025CB OVC060
     FM082100 26015G22KT P6SM VCSH BKN050=

USA.gov is the U.S. government's official web portal to all federal, state and local government web resources and services.